sensor_id;sensor_type;location;lat;lon;timestamp;P1;durP1;ratioP1;P2;durP2;ratioP2
2848;SDS011;59355;52.416;13.412;2023-02-28T00:02:14;7.10;;;5.60;;
2848;SDS011;59355;52.416;13.412;2023-02-28T00:04:42;7.70;;;6.10;;
2848;SDS011;59355;52.416;13.412;2023-02-28T00:07:07;6.87;;;5.87;;
2848;SDS011;59355;52.416;13.412;2023-02-28T00:09:33;6.10;;;5.50;;
2848;SDS011;59355;52.416;13.412;2023-02-28T00:11:58;7.50;;;6.33;;
2848;SDS011;59355;52.416;13.412;2023-02-28T00:14:23;6.93;;;6.20;;
2848;SDS011;59355;52.416;13.412;2023-02-28T00:16:48;7.03;;;6.30;;
2848;SDS011;59355;52.416;13.412;2023-02-28T00:19:14;7.33;;;6.60;;
2848;SDS011;59355;52.416;13.412;2023-02-28T00:21:39;10.27;;;7.50;;
2848;SDS011;59355;52.416;13.412;2023-02-28T00:24:05;7.77;;;6.97;;
2848;SDS011;59355;52.416;13.412;2023-02-28T00:26:31;6.33;;;5.73;;
2848;SDS011;59355;52.416;13.412;2023-02-28T00:28:56;6.83;;;6.13;;
2848;SDS011;59355;52.416;13.412;2023-02-28T00:31:22;7.67;;;6.03;;
2848;SDS011;59355;52.416;13.412;2023-02-28T00:33:47;8.70;;;7.10;;
2848;SDS011;59355;52.416;13.412;2023-02-28T00:36:12;7.53;;;6.67;;
2848;SDS011;59355;52.416;13.412;2023-02-28T00:38:38;7.20;;;5.90;;
2848;SDS011;59355;52.416;13.412;2023-02-28T00:41:04;8.13;;;6.90;;
2848;SDS011;59355;52.416;13.412;2023-02-28T00:43:30;7.40;;;5.50;;
2848;SDS011;59355;52.416;13.412;2023-02-28T00:45:59;6.17;;;5.57;;
2848;SDS011;59355;52.416;13.412;2023-02-28T00:48:24;7.50;;;5.57;;
2848;SDS011;59355;52.416;13.412;2023-02-28T00:50:49;10.30;;;6.30;;
2848;SDS011;59355;52.416;13.412;2023-02-28T00:53:15;7.33;;;6.63;;
2848;SDS011;59355;52.416;13.412;2023-02-28T00:55:40;9.20;;;6.90;;
2848;SDS011;59355;52.416;13.412;2023-02-28T00:58:05;6.83;;;5.97;;
2848;SDS011;59355;52.416;13.412;2023-02-28T01:00:31;7.70;;;6.10;;
2848;SDS011;59355;52.416;13.412;2023-02-28T01:02:56;7.53;;;6.40;;
2848;SDS011;59355;52.416;13.412;2023-02-28T01:05:21;7.10;;;5.87;;
2848;SDS011;59355;52.416;13.412;2023-02-28T01:07:47;7.13;;;6.47;;
2848;SDS011;59355;52.416;13.412;2023-02-28T01:10:12;11.73;;;6.00;;
2848;SDS011;59355;52.416;13.412;2023-02-28T01:12:37;7.00;;;6.30;;
2848;SDS011;59355;52.416;13.412;2023-02-28T01:15:03;6.80;;;5.40;;
2848;SDS011;59355;52.416;13.412;2023-02-28T01:17:28;7.17;;;5.43;;
2848;SDS011;59355;52.416;13.412;2023-02-28T01:19:54;7.73;;;6.30;;
2848;SDS011;59355;52.416;13.412;2023-02-28T01:22:20;7.60;;;6.10;;
2848;SDS011;59355;52.416;13.412;2023-02-28T01:24:46;7.13;;;6.53;;
2848;SDS011;59355;52.416;13.412;2023-02-28T01:27:11;7.27;;;6.33;;
2848;SDS011;59355;52.416;13.412;2023-02-28T01:29:36;7.50;;;5.67;;
2848;SDS011;59355;52.416;13.412;2023-02-28T01:32:02;8.10;;;6.07;;
2848;SDS011;59355;52.416;13.412;2023-02-28T01:34:27;9.93;;;7.10;;
2848;SDS011;59355;52.416;13.412;2023-02-28T01:36:52;6.47;;;5.80;;
2848;SDS011;59355;52.416;13.412;2023-02-28T01:39:18;7.70;;;7.00;;
2848;SDS011;59355;52.416;13.412;2023-02-28T01:41:43;7.13;;;6.43;;
2848;SDS011;59355;52.416;13.412;2023-02-28T01:47:11;8.73;;;6.67;;
2848;SDS011;59355;52.416;13.412;2023-02-28T01:49:37;8.63;;;6.33;;
2848;SDS011;59355;52.416;13.412;2023-02-28T01:52:02;6.27;;;5.67;;
2848;SDS011;59355;52.416;13.412;2023-02-28T01:54:29;6.63;;;6.00;;
2848;SDS011;59355;52.416;13.412;2023-02-28T01:56:57;7.53;;;6.70;;
2848;SDS011;59355;52.416;13.412;2023-02-28T01:59:26;7.07;;;6.27;;
2848;SDS011;59355;52.416;13.412;2023-02-28T02:01:55;7.73;;;6.87;;
2848;SDS011;59355;52.416;13.412;2023-02-28T02:04:21;7.47;;;5.83;;
2848;SDS011;59355;52.416;13.412;2023-02-28T02:06:48;6.80;;;6.10;;
2848;SDS011;59355;52.416;13.412;2023-02-28T02:09:14;8.33;;;6.20;;
2848;SDS011;59355;52.416;13.412;2023-02-28T02:11:41;6.60;;;5.73;;
2848;SDS011;59355;52.416;13.412;2023-02-28T02:14:12;6.67;;;6.07;;
2848;SDS011;59355;52.416;13.412;2023-02-28T02:17:07;6.33;;;5.73;;
2848;SDS011;59355;52.416;13.412;2023-02-28T02:20:16;8.40;;;6.10;;
2848;SDS011;59355;52.416;13.412;2023-02-28T02:23:18;7.10;;;6.30;;
2848;SDS011;59355;52.416;13.412;2023-02-28T02:26:16;7.10;;;5.50;;
2848;SDS011;59355;52.416;13.412;2023-02-28T02:28:52;6.97;;;6.10;;
2848;SDS011;59355;52.416;13.412;2023-02-28T02:31:37;7.60;;;6.60;;
2848;SDS011;59355;52.416;13.412;2023-02-28T02:37:13;6.70;;;5.57;;
2848;SDS011;59355;52.416;13.412;2023-02-28T02:39:48;7.53;;;6.80;;
2848;SDS011;59355;52.416;13.412;2023-02-28T02:42:23;8.80;;;6.80;;
2848;SDS011;59355;52.416;13.412;2023-02-28T02:44:57;7.03;;;6.33;;
2848;SDS011;59355;52.416;13.412;2023-02-28T02:47:26;6.80;;;6.07;;
2848;SDS011;59355;52.416;13.412;2023-02-28T02:49:53;6.77;;;5.97;;
2848;SDS011;59355;52.416;13.412;2023-02-28T02:52:22;7.53;;;6.30;;
2848;SDS011;59355;52.416;13.412;2023-02-28T02:54:50;8.57;;;6.60;;
2848;SDS011;59355;52.416;13.412;2023-02-28T03:00:13;12.27;;;7.43;;
2848;SDS011;59355;52.416;13.412;2023-02-28T03:02:41;7.47;;;6.07;;
2848;SDS011;59355;52.416;13.412;2023-02-28T03:05:09;11.00;;;7.20;;
2848;SDS011;59355;52.416;13.412;2023-02-28T03:07:39;9.73;;;6.53;;
2848;SDS011;59355;52.416;13.412;2023-02-28T03:10:25;9.83;;;6.80;;
2848;SDS011;59355;52.416;13.412;2023-02-28T03:16:28;6.57;;;5.87;;
2848;SDS011;59355;52.416;13.412;2023-02-28T03:19:16;7.27;;;6.57;;
2848;SDS011;59355;52.416;13.412;2023-02-28T03:21:53;8.60;;;7.70;;
2848;SDS011;59355;52.416;13.412;2023-02-28T03:24:32;8.93;;;7.30;;
2848;SDS011;59355;52.416;13.412;2023-02-28T03:27:07;9.47;;;8.07;;
2848;SDS011;59355;52.416;13.412;2023-02-28T03:29:37;8.97;;;7.63;;
2848;SDS011;59355;52.416;13.412;2023-02-28T03:32:08;8.80;;;7.90;;
2848;SDS011;59355;52.416;13.412;2023-02-28T03:34:42;8.10;;;7.30;;
2848;SDS011;59355;52.416;13.412;2023-02-28T03:37:13;9.30;;;8.27;;
2848;SDS011;59355;52.416;13.412;2023-02-28T03:39:43;10.10;;;7.87;;
2848;SDS011;59355;52.416;13.412;2023-02-28T03:42:11;14.33;;;8.63;;
2848;SDS011;59355;52.416;13.412;2023-02-28T03:44:41;9.17;;;8.17;;
2848;SDS011;59355;52.416;13.412;2023-02-28T03:47:16;9.27;;;7.40;;
2848;SDS011;59355;52.416;13.412;2023-02-28T03:52:19;10.43;;;8.60;;
2848;SDS011;59355;52.416;13.412;2023-02-28T03:54:48;11.07;;;8.10;;
2848;SDS011;59355;52.416;13.412;2023-02-28T04:00:31;10.40;;;8.13;;
2848;SDS011;59355;52.416;13.412;2023-02-28T04:03:00;11.43;;;9.30;;
2848;SDS011;59355;52.416;13.412;2023-02-28T04:05:25;11.70;;;10.50;;
2848;SDS011;59355;52.416;13.412;2023-02-28T04:07:51;10.53;;;9.33;;
2848;SDS011;59355;52.416;13.412;2023-02-28T04:10:17;17.33;;;11.17;;
2848;SDS011;59355;52.416;13.412;2023-02-28T04:12:42;9.93;;;8.50;;
2848;SDS011;59355;52.416;13.412;2023-02-28T04:15:08;11.97;;;9.33;;
2848;SDS011;59355;52.416;13.412;2023-02-28T04:17:33;11.20;;;8.53;;
2848;SDS011;59355;52.416;13.412;2023-02-28T04:19:58;10.80;;;8.97;;
2848;SDS011;59355;52.416;13.412;2023-02-28T04:22:24;12.40;;;8.77;;
2848;SDS011;59355;52.416;13.412;2023-02-28T04:24:51;14.20;;;9.70;;
2848;SDS011;59355;52.416;13.412;2023-02-28T04:27:16;12.90;;;9.57;;
2848;SDS011;59355;52.416;13.412;2023-02-28T04:29:41;12.03;;;9.67;;
2848;SDS011;59355;52.416;13.412;2023-02-28T04:32:09;10.00;;;9.00;;
2848;SDS011;59355;52.416;13.412;2023-02-28T04:34:34;16.27;;;9.77;;
2848;SDS011;59355;52.416;13.412;2023-02-28T04:37:00;11.93;;;9.03;;
2848;SDS011;59355;52.416;13.412;2023-02-28T04:39:25;10.97;;;8.27;;
2848;SDS011;59355;52.416;13.412;2023-02-28T04:41:51;12.43;;;9.60;;
2848;SDS011;59355;52.416;13.412;2023-02-28T04:44:16;11.33;;;9.63;;
2848;SDS011;59355;52.416;13.412;2023-02-28T04:46:42;14.20;;;8.97;;
2848;SDS011;59355;52.416;13.412;2023-02-28T04:49:08;10.83;;;9.57;;
2848;SDS011;59355;52.416;13.412;2023-02-28T04:51:35;11.43;;;9.10;;
2848;SDS011;59355;52.416;13.412;2023-02-28T04:54:01;11.80;;;9.40;;
2848;SDS011;59355;52.416;13.412;2023-02-28T04:56:26;12.20;;;8.73;;
2848;SDS011;59355;52.416;13.412;2023-02-28T04:58:51;10.60;;;7.60;;
2848;SDS011;59355;52.416;13.412;2023-02-28T05:03:54;9.10;;;8.20;;
2848;SDS011;59355;52.416;13.412;2023-02-28T05:06:20;10.83;;;9.93;;
2848;SDS011;59355;52.416;13.412;2023-02-28T05:08:48;12.23;;;9.47;;
2848;SDS011;59355;52.416;13.412;2023-02-28T05:11:15;14.03;;;8.90;;
2848;SDS011;59355;52.416;13.412;2023-02-28T05:13:45;11.87;;;8.50;;
2848;SDS011;59355;52.416;13.412;2023-02-28T05:16:10;11.50;;;8.30;;
2848;SDS011;59355;52.416;13.412;2023-02-28T05:18:36;11.17;;;7.33;;
2848;SDS011;59355;52.416;13.412;2023-02-28T05:21:01;11.87;;;8.93;;
2848;SDS011;59355;52.416;13.412;2023-02-28T05:23:27;15.67;;;10.00;;
2848;SDS011;59355;52.416;13.412;2023-02-28T05:25:52;10.60;;;9.03;;
2848;SDS011;59355;52.416;13.412;2023-02-28T05:28:18;14.07;;;9.67;;
2848;SDS011;59355;52.416;13.412;2023-02-28T05:30:44;11.80;;;9.20;;
2848;SDS011;59355;52.416;13.412;2023-02-28T05:33:10;10.43;;;9.23;;
2848;SDS011;59355;52.416;13.412;2023-02-28T05:35:37;13.67;;;9.30;;
2848;SDS011;59355;52.416;13.412;2023-02-28T05:38:03;11.63;;;9.80;;
2848;SDS011;59355;52.416;13.412;2023-02-28T05:40:28;12.43;;;10.63;;
2848;SDS011;59355;52.416;13.412;2023-02-28T05:42:54;14.53;;;9.83;;
2848;SDS011;59355;52.416;13.412;2023-02-28T05:45:19;11.77;;;9.30;;
2848;SDS011;59355;52.416;13.412;2023-02-28T05:47:44;11.20;;;9.50;;
2848;SDS011;59355;52.416;13.412;2023-02-28T05:50:10;10.23;;;9.10;;
2848;SDS011;59355;52.416;13.412;2023-02-28T05:52:36;10.87;;;9.53;;
2848;SDS011;59355;52.416;13.412;2023-02-28T05:55:01;13.53;;;9.50;;
2848;SDS011;59355;52.416;13.412;2023-02-28T05:57:26;12.30;;;9.70;;
2848;SDS011;59355;52.416;13.412;2023-02-28T05:59:52;12.00;;;9.07;;
2848;SDS011;59355;52.416;13.412;2023-02-28T06:02:17;13.40;;;9.63;;
2848;SDS011;59355;52.416;13.412;2023-02-28T06:04:43;10.03;;;8.60;;
2848;SDS011;59355;52.416;13.412;2023-02-28T06:07:08;11.90;;;8.80;;
2848;SDS011;59355;52.416;13.412;2023-02-28T06:09:34;9.40;;;8.40;;
2848;SDS011;59355;52.416;13.412;2023-02-28T06:12:00;12.53;;;9.20;;
2848;SDS011;59355;52.416;13.412;2023-02-28T06:14:28;12.37;;;9.33;;
2848;SDS011;59355;52.416;13.412;2023-02-28T06:16:55;11.40;;;10.20;;
2848;SDS011;59355;52.416;13.412;2023-02-28T06:19:21;9.70;;;8.70;;
2848;SDS011;59355;52.416;13.412;2023-02-28T06:21:48;16.23;;;10.30;;
2848;SDS011;59355;52.416;13.412;2023-02-28T06:24:15;10.70;;;9.60;;
2848;SDS011;59355;52.416;13.412;2023-02-28T06:26:40;11.90;;;9.13;;
2848;SDS011;59355;52.416;13.412;2023-02-28T06:29:06;11.67;;;10.33;;
2848;SDS011;59355;52.416;13.412;2023-02-28T06:31:32;14.73;;;11.03;;
2848;SDS011;59355;52.416;13.412;2023-02-28T06:33:57;12.33;;;9.73;;
2848;SDS011;59355;52.416;13.412;2023-02-28T06:36:23;10.73;;;8.67;;
2848;SDS011;59355;52.416;13.412;2023-02-28T06:38:48;12.17;;;10.90;;
2848;SDS011;59355;52.416;13.412;2023-02-28T06:41:16;15.20;;;10.43;;
2848;SDS011;59355;52.416;13.412;2023-02-28T06:43:42;11.97;;;8.90;;
2848;SDS011;59355;52.416;13.412;2023-02-28T06:46:10;11.57;;;8.80;;
2848;SDS011;59355;52.416;13.412;2023-02-28T06:48:36;11.10;;;8.77;;
2848;SDS011;59355;52.416;13.412;2023-02-28T06:51:06;12.57;;;9.87;;
2848;SDS011;59355;52.416;13.412;2023-02-28T06:53:33;13.57;;;10.13;;
2848;SDS011;59355;52.416;13.412;2023-02-28T06:55:58;12.27;;;10.07;;
2848;SDS011;59355;52.416;13.412;2023-02-28T06:58:24;13.90;;;10.27;;
2848;SDS011;59355;52.416;13.412;2023-02-28T07:00:52;11.50;;;8.70;;
2848;SDS011;59355;52.416;13.412;2023-02-28T07:03:18;14.20;;;10.03;;
2848;SDS011;59355;52.416;13.412;2023-02-28T07:05:43;12.20;;;10.30;;
2848;SDS011;59355;52.416;13.412;2023-02-28T07:08:08;13.00;;;11.30;;
2848;SDS011;59355;52.416;13.412;2023-02-28T07:10:34;14.33;;;11.80;;
2848;SDS011;59355;52.416;13.412;2023-02-28T07:13:02;12.33;;;11.03;;
2848;SDS011;59355;52.416;13.412;2023-02-28T07:15:28;13.17;;;11.63;;
2848;SDS011;59355;52.416;13.412;2023-02-28T07:17:53;13.73;;;11.43;;
2848;SDS011;59355;52.416;13.412;2023-02-28T07:20:19;13.93;;;10.40;;
2848;SDS011;59355;52.416;13.412;2023-02-28T07:22:44;20.30;;;13.47;;
2848;SDS011;59355;52.416;13.412;2023-02-28T07:25:09;14.67;;;12.47;;
2848;SDS011;59355;52.416;13.412;2023-02-28T07:27:35;13.80;;;12.17;;
2848;SDS011;59355;52.416;13.412;2023-02-28T07:30:00;15.70;;;11.60;;
2848;SDS011;59355;52.416;13.412;2023-02-28T07:32:26;14.73;;;11.63;;
2848;SDS011;59355;52.416;13.412;2023-02-28T07:34:52;13.70;;;11.73;;
2848;SDS011;59355;52.416;13.412;2023-02-28T07:37:17;14.67;;;11.53;;
2848;SDS011;59355;52.416;13.412;2023-02-28T07:39:43;12.20;;;9.33;;
2848;SDS011;59355;52.416;13.412;2023-02-28T07:42:08;10.43;;;9.37;;
2848;SDS011;59355;52.416;13.412;2023-02-28T07:44:36;10.80;;;9.17;;
2848;SDS011;59355;52.416;13.412;2023-02-28T07:47:05;11.47;;;8.93;;
2848;SDS011;59355;52.416;13.412;2023-02-28T07:49:34;10.10;;;8.57;;
2848;SDS011;59355;52.416;13.412;2023-02-28T07:52:01;11.50;;;7.70;;
2848;SDS011;59355;52.416;13.412;2023-02-28T07:54:27;10.30;;;8.37;;
2848;SDS011;59355;52.416;13.412;2023-02-28T07:56:52;8.83;;;7.80;;
2848;SDS011;59355;52.416;13.412;2023-02-28T07:59:18;10.37;;;7.93;;
2848;SDS011;59355;52.416;13.412;2023-02-28T08:01:43;10.00;;;7.30;;
2848;SDS011;59355;52.416;13.412;2023-02-28T08:04:09;6.90;;;5.97;;
2848;SDS011;59355;52.416;13.412;2023-02-28T08:06:34;7.00;;;6.30;;
2848;SDS011;59355;52.416;13.412;2023-02-28T08:09:00;6.83;;;5.57;;
2848;SDS011;59355;52.416;13.412;2023-02-28T08:11:25;8.17;;;5.87;;
2848;SDS011;59355;52.416;13.412;2023-02-28T08:13:50;10.67;;;6.10;;
2848;SDS011;59355;52.416;13.412;2023-02-28T08:16:16;6.73;;;6.07;;
2848;SDS011;59355;52.416;13.412;2023-02-28T08:18:46;7.53;;;5.50;;
2848;SDS011;59355;52.416;13.412;2023-02-28T08:21:12;8.83;;;5.50;;
2848;SDS011;59355;52.416;13.412;2023-02-28T08:23:37;6.67;;;5.60;;
2848;SDS011;59355;52.416;13.412;2023-02-28T08:26:03;6.30;;;5.07;;
2848;SDS011;59355;52.416;13.412;2023-02-28T08:28:28;7.90;;;5.83;;
2848;SDS011;59355;52.416;13.412;2023-02-28T08:30:54;6.60;;;5.90;;
2848;SDS011;59355;52.416;13.412;2023-02-28T08:33:19;7.83;;;7.13;;
2848;SDS011;59355;52.416;13.412;2023-02-28T08:35:44;8.77;;;6.23;;
2848;SDS011;59355;52.416;13.412;2023-02-28T08:38:10;9.17;;;6.70;;
2848;SDS011;59355;52.416;13.412;2023-02-28T08:40:35;10.10;;;6.90;;
2848;SDS011;59355;52.416;13.412;2023-02-28T08:43:00;7.27;;;6.13;;
2848;SDS011;59355;52.416;13.412;2023-02-28T08:45:25;11.33;;;7.30;;
2848;SDS011;59355;52.416;13.412;2023-02-28T08:47:51;10.13;;;6.17;;
2848;SDS011;59355;52.416;13.412;2023-02-28T08:50:17;8.50;;;7.57;;
2848;SDS011;59355;52.416;13.412;2023-02-28T08:52:43;7.83;;;6.13;;
2848;SDS011;59355;52.416;13.412;2023-02-28T08:55:09;10.33;;;6.83;;
2848;SDS011;59355;52.416;13.412;2023-02-28T08:57:34;8.67;;;6.40;;
2848;SDS011;59355;52.416;13.412;2023-02-28T09:00:00;11.33;;;7.10;;
2848;SDS011;59355;52.416;13.412;2023-02-28T09:02:29;8.17;;;5.87;;
2848;SDS011;59355;52.416;13.412;2023-02-28T09:04:55;6.77;;;6.10;;
2848;SDS011;59355;52.416;13.412;2023-02-28T09:07:20;10.07;;;5.70;;
2848;SDS011;59355;52.416;13.412;2023-02-28T09:09:45;6.80;;;5.40;;
2848;SDS011;59355;52.416;13.412;2023-02-28T09:12:20;7.60;;;5.40;;
2848;SDS011;59355;52.416;13.412;2023-02-28T09:14:46;5.20;;;4.70;;
2848;SDS011;59355;52.416;13.412;2023-02-28T09:17:12;4.77;;;4.27;;
2848;SDS011;59355;52.416;13.412;2023-02-28T09:19:37;5.10;;;4.60;;
2848;SDS011;59355;52.416;13.412;2023-02-28T09:22:02;6.03;;;4.83;;
2848;SDS011;59355;52.416;13.412;2023-02-28T09:24:27;5.73;;;4.43;;
2848;SDS011;59355;52.416;13.412;2023-02-28T09:26:53;5.40;;;4.80;;
2848;SDS011;59355;52.416;13.412;2023-02-28T09:29:18;5.30;;;4.53;;
2848;SDS011;59355;52.416;13.412;2023-02-28T09:31:43;5.77;;;4.43;;
2848;SDS011;59355;52.416;13.412;2023-02-28T09:34:09;7.30;;;4.63;;
2848;SDS011;59355;52.416;13.412;2023-02-28T09:36:35;5.10;;;4.60;;
2848;SDS011;59355;52.416;13.412;2023-02-28T09:39:02;5.63;;;5.03;;
2848;SDS011;59355;52.416;13.412;2023-02-28T09:41:28;5.57;;;4.50;;
2848;SDS011;59355;52.416;13.412;2023-02-28T09:44:00;5.20;;;3.87;;
2848;SDS011;59355;52.416;13.412;2023-02-28T09:48:56;5.63;;;4.30;;
2848;SDS011;59355;52.416;13.412;2023-02-28T09:54:16;5.40;;;3.53;;
2848;SDS011;59355;52.416;13.412;2023-02-28T09:56:48;4.63;;;3.53;;
2848;SDS011;59355;52.416;13.412;2023-02-28T10:07:47;4.47;;;3.60;;
2848;SDS011;59355;52.416;13.412;2023-02-28T10:10:04;6.80;;;3.30;;
2848;SDS011;59355;52.416;13.412;2023-02-28T10:12:36;4.90;;;3.77;;
2848;SDS011;59355;52.416;13.412;2023-02-28T10:15:07;3.43;;;3.00;;
2848;SDS011;59355;52.416;13.412;2023-02-28T10:17:38;5.60;;;3.70;;
2848;SDS011;59355;52.416;13.412;2023-02-28T10:20:05;4.63;;;2.77;;
2848;SDS011;59355;52.416;13.412;2023-02-28T10:25:00;5.03;;;3.13;;
2848;SDS011;59355;52.416;13.412;2023-02-28T10:27:33;4.87;;;3.23;;
2848;SDS011;59355;52.416;13.412;2023-02-28T10:30:00;3.20;;;2.90;;
2848;SDS011;59355;52.416;13.412;2023-02-28T10:32:29;4.00;;;3.37;;
2848;SDS011;59355;52.416;13.412;2023-02-28T10:34:59;4.53;;;3.03;;
2848;SDS011;59355;52.416;13.412;2023-02-28T10:37:27;3.63;;;2.93;;
2848;SDS011;59355;52.416;13.412;2023-02-28T10:39:52;5.27;;;3.23;;
2848;SDS011;59355;52.416;13.412;2023-02-28T10:42:28;4.80;;;2.90;;
2848;SDS011;59355;52.416;13.412;2023-02-28T10:47:48;5.03;;;3.63;;
2848;SDS011;59355;52.416;13.412;2023-02-28T10:50:30;5.13;;;3.30;;
2848;SDS011;59355;52.416;13.412;2023-02-28T10:53:16;3.73;;;3.10;;
2848;SDS011;59355;52.416;13.412;2023-02-28T10:58:51;5.43;;;3.63;;
2848;SDS011;59355;52.416;13.412;2023-02-28T11:01:18;3.80;;;3.03;;
2848;SDS011;59355;52.416;13.412;2023-02-28T11:03:44;5.07;;;3.50;;
2848;SDS011;59355;52.416;13.412;2023-02-28T11:06:15;4.47;;;4.00;;
2848;SDS011;59355;52.416;13.412;2023-02-28T11:11:14;4.80;;;3.23;;
2848;SDS011;59355;52.416;13.412;2023-02-28T11:13:41;3.60;;;3.13;;
2848;SDS011;59355;52.416;13.412;2023-02-28T11:16:08;11.43;;;3.73;;
2848;SDS011;59355;52.416;13.412;2023-02-28T11:21:00;6.47;;;3.73;;
2848;SDS011;59355;52.416;13.412;2023-02-28T11:23:27;4.33;;;3.90;;
2848;SDS011;59355;52.416;13.412;2023-02-28T11:26:00;3.63;;;3.30;;
2848;SDS011;59355;52.416;13.412;2023-02-28T11:28:30;5.97;;;4.30;;
2848;SDS011;59355;52.416;13.412;2023-02-28T11:31:18;5.63;;;3.27;;
2848;SDS011;59355;52.416;13.412;2023-02-28T11:33:54;5.00;;;3.40;;
2848;SDS011;59355;52.416;13.412;2023-02-28T11:36:24;3.90;;;3.10;;
2848;SDS011;59355;52.416;13.412;2023-02-28T11:38:56;4.47;;;3.63;;
2848;SDS011;59355;52.416;13.412;2023-02-28T11:44:37;3.83;;;3.13;;
2848;SDS011;59355;52.416;13.412;2023-02-28T11:47:09;4.83;;;3.50;;
2848;SDS011;59355;52.416;13.412;2023-02-28T11:49:44;6.30;;;3.93;;
2848;SDS011;59355;52.416;13.412;2023-02-28T11:52:29;5.33;;;4.17;;
2848;SDS011;59355;52.416;13.412;2023-02-28T11:55:05;5.20;;;3.90;;
2848;SDS011;59355;52.416;13.412;2023-02-28T12:06:22;3.57;;;3.17;;
2848;SDS011;59355;52.416;13.412;2023-02-28T12:11:30;4.87;;;3.63;;
2848;SDS011;59355;52.416;13.412;2023-02-28T12:14:22;5.37;;;4.03;;
2848;SDS011;59355;52.416;13.412;2023-02-28T12:17:01;5.33;;;3.80;;
2848;SDS011;59355;52.416;13.412;2023-02-28T12:19:39;3.90;;;3.50;;
2848;SDS011;59355;52.416;13.412;2023-02-28T12:24:55;6.30;;;3.93;;
2848;SDS011;59355;52.416;13.412;2023-02-28T12:27:46;3.83;;;3.53;;
2848;SDS011;59355;52.416;13.412;2023-02-28T12:32:55;8.13;;;4.17;;
2848;SDS011;59355;52.416;13.412;2023-02-28T12:35:25;8.13;;;4.70;;
2848;SDS011;59355;52.416;13.412;2023-02-28T12:41:03;5.00;;;3.63;;
2848;SDS011;59355;52.416;13.412;2023-02-28T12:43:43;5.20;;;4.10;;
2848;SDS011;59355;52.416;13.412;2023-02-28T12:46:19;4.13;;;3.53;;
2848;SDS011;59355;52.416;13.412;2023-02-28T12:48:51;4.80;;;4.20;;
2848;SDS011;59355;52.416;13.412;2023-02-28T12:51:20;4.20;;;3.80;;
2848;SDS011;59355;52.416;13.412;2023-02-28T12:53:54;5.93;;;4.00;;
2848;SDS011;59355;52.416;13.412;2023-02-28T13:02:00;4.77;;;4.27;;
2848;SDS011;59355;52.416;13.412;2023-02-28T13:07:33;5.63;;;3.33;;
2848;SDS011;59355;52.416;13.412;2023-02-28T13:10:11;5.17;;;3.83;;
2848;SDS011;59355;52.416;13.412;2023-02-28T13:12:38;5.83;;;4.17;;
2848;SDS011;59355;52.416;13.412;2023-02-28T13:17:53;6.77;;;3.90;;
2848;SDS011;59355;52.416;13.412;2023-02-28T13:20:21;4.60;;;4.10;;
2848;SDS011;59355;52.416;13.412;2023-02-28T13:22:50;4.70;;;3.90;;
2848;SDS011;59355;52.416;13.412;2023-02-28T13:27:58;5.40;;;4.13;;
2848;SDS011;59355;52.416;13.412;2023-02-28T13:35:44;5.73;;;5.03;;
2848;SDS011;59355;52.416;13.412;2023-02-28T13:38:17;4.83;;;4.20;;
2848;SDS011;59355;52.416;13.412;2023-02-28T13:40:47;5.50;;;4.30;;
2848;SDS011;59355;52.416;13.412;2023-02-28T13:43:13;4.13;;;3.73;;
2848;SDS011;59355;52.416;13.412;2023-02-28T13:45:44;6.33;;;4.50;;
2848;SDS011;59355;52.416;13.412;2023-02-28T13:48:44;4.47;;;3.80;;
2848;SDS011;59355;52.416;13.412;2023-02-28T13:57:13;4.80;;;4.00;;
2848;SDS011;59355;52.416;13.412;2023-02-28T13:59:54;4.33;;;3.83;;
2848;SDS011;59355;52.416;13.412;2023-02-28T14:03:01;5.23;;;3.90;;
2848;SDS011;59355;52.416;13.412;2023-02-28T14:05:33;4.23;;;3.83;;
2848;SDS011;59355;52.416;13.412;2023-02-28T14:07:59;5.40;;;4.20;;
2848;SDS011;59355;52.416;13.412;2023-02-28T14:10:31;5.70;;;4.73;;
2848;SDS011;59355;52.416;13.412;2023-02-28T14:13:01;4.70;;;4.10;;
2848;SDS011;59355;52.416;13.412;2023-02-28T14:15:49;4.13;;;3.73;;
2848;SDS011;59355;52.416;13.412;2023-02-28T14:18:21;4.60;;;4.10;;
2848;SDS011;59355;52.416;13.412;2023-02-28T14:20:47;5.60;;;4.03;;
2848;SDS011;59355;52.416;13.412;2023-02-28T14:26:14;5.73;;;4.27;;
2848;SDS011;59355;52.416;13.412;2023-02-28T14:28:55;4.80;;;4.20;;
2848;SDS011;59355;52.416;13.412;2023-02-28T14:34:24;6.83;;;4.60;;
2848;SDS011;59355;52.416;13.412;2023-02-28T14:36:57;4.33;;;3.90;;
2848;SDS011;59355;52.416;13.412;2023-02-28T14:39:24;4.33;;;3.93;;
2848;SDS011;59355;52.416;13.412;2023-02-28T14:41:50;6.30;;;4.03;;
2848;SDS011;59355;52.416;13.412;2023-02-28T14:44:21;7.20;;;4.40;;
2848;SDS011;59355;52.416;13.412;2023-02-28T14:46:49;7.10;;;4.83;;
2848;SDS011;59355;52.416;13.412;2023-02-28T14:49:36;5.00;;;4.33;;
2848;SDS011;59355;52.416;13.412;2023-02-28T14:52:20;5.50;;;4.07;;
2848;SDS011;59355;52.416;13.412;2023-02-28T14:55:22;4.43;;;4.03;;
2848;SDS011;59355;52.416;13.412;2023-02-28T14:57:41;6.33;;;4.80;;
2848;SDS011;59355;52.416;13.412;2023-02-28T15:00:26;5.27;;;4.27;;
2848;SDS011;59355;52.416;13.412;2023-02-28T15:06:01;5.40;;;4.50;;
2848;SDS011;59355;52.416;13.412;2023-02-28T15:08:28;6.43;;;4.50;;
2848;SDS011;59355;52.416;13.412;2023-02-28T15:10:55;4.93;;;4.40;;
2848;SDS011;59355;52.416;13.412;2023-02-28T15:13:23;10.03;;;4.93;;
2848;SDS011;59355;52.416;13.412;2023-02-28T15:18:24;5.33;;;4.83;;
2848;SDS011;59355;52.416;13.412;2023-02-28T15:20:58;8.73;;;4.80;;
2848;SDS011;59355;52.416;13.412;2023-02-28T15:23:28;6.03;;;3.97;;
2848;SDS011;59355;52.416;13.412;2023-02-28T15:25:54;5.70;;;4.40;;
2848;SDS011;59355;52.416;13.412;2023-02-28T15:28:20;5.57;;;4.33;;
2848;SDS011;59355;52.416;13.412;2023-02-28T15:30:54;5.67;;;4.80;;
2848;SDS011;59355;52.416;13.412;2023-02-28T15:33:26;6.23;;;4.97;;
2848;SDS011;59355;52.416;13.412;2023-02-28T15:36:03;5.23;;;3.97;;
2848;SDS011;59355;52.416;13.412;2023-02-28T15:38:32;6.27;;;4.20;;
2848;SDS011;59355;52.416;13.412;2023-02-28T15:40:59;4.70;;;4.00;;
2848;SDS011;59355;52.416;13.412;2023-02-28T15:44:13;7.40;;;4.83;;
2848;SDS011;59355;52.416;13.412;2023-02-28T15:46:36;7.90;;;5.30;;
2848;SDS011;59355;52.416;13.412;2023-02-28T15:49:01;11.47;;;4.57;;
2848;SDS011;59355;52.416;13.412;2023-02-28T15:51:29;8.03;;;5.37;;
2848;SDS011;59355;52.416;13.412;2023-02-28T15:54:08;8.00;;;5.03;;
2848;SDS011;59355;52.416;13.412;2023-02-28T15:56:43;5.33;;;4.83;;
2848;SDS011;59355;52.416;13.412;2023-02-28T15:59:15;6.17;;;4.53;;
2848;SDS011;59355;52.416;13.412;2023-02-28T16:01:42;5.90;;;5.23;;
2848;SDS011;59355;52.416;13.412;2023-02-28T16:04:15;6.03;;;5.00;;
2848;SDS011;59355;52.416;13.412;2023-02-28T16:06:43;7.30;;;4.73;;
2848;SDS011;59355;52.416;13.412;2023-02-28T16:09:13;6.50;;;4.83;;
2848;SDS011;59355;52.416;13.412;2023-02-28T16:11:47;6.90;;;5.53;;
2848;SDS011;59355;52.416;13.412;2023-02-28T16:14:15;6.27;;;4.60;;
2848;SDS011;59355;52.416;13.412;2023-02-28T16:16:45;4.73;;;4.23;;
2848;SDS011;59355;52.416;13.412;2023-02-28T16:19:12;5.63;;;4.43;;
2848;SDS011;59355;52.416;13.412;2023-02-28T16:21:37;6.40;;;5.20;;
2848;SDS011;59355;52.416;13.412;2023-02-28T16:24:02;5.93;;;5.10;;
2848;SDS011;59355;52.416;13.412;2023-02-28T16:26:28;7.73;;;4.77;;
2848;SDS011;59355;52.416;13.412;2023-02-28T16:28:53;5.73;;;4.67;;
2848;SDS011;59355;52.416;13.412;2023-02-28T16:31:19;6.30;;;5.23;;
2848;SDS011;59355;52.416;13.412;2023-02-28T16:33:44;7.23;;;5.53;;
2848;SDS011;59355;52.416;13.412;2023-02-28T16:36:21;5.47;;;4.57;;
2848;SDS011;59355;52.416;13.412;2023-02-28T16:38:49;6.43;;;5.00;;
2848;SDS011;59355;52.416;13.412;2023-02-28T16:41:16;8.07;;;6.67;;
2848;SDS011;59355;52.416;13.412;2023-02-28T16:43:44;8.60;;;7.40;;